Terminal Aerodrome Forecast
Issued by NWS Albany, NY

Home | Current Version | Previous Version | Text Only | Print | Product List | Glossary On
Versions: 1 2 3 4 5 6 7 8 9 10 11 12 13 14 15 16 17 18 19
815
FTUS41 KALY 290520
TAFGFL
TAF
KGFL 290520Z 2906/3006 17005KT P6SM BKN080 WS020/16030KT
     FM291300 13005KT 5SM -RA BR OVC060
     FM291600 15006KT 4SM -RA BR OVC015
     FM292200 14006KT 6SM BR VCSH SCT015 BKN030
     FM300400 VRB03KT P6SM OVC015
      AMD NOT SKED=

USA.gov is the U.S. government's official web portal to all federal, state and local government web resources and services.